SBGL/GIG METAR and TAF weather

Enter ICAO airport designator
Station Type Date Time Source
SBGL METAR 2019/06/26 06:00 UTC NOAA

SBGL 260600Z 05003KT CAVOK 21/19 Q1013


Station Type Date Time Source
SBGL Decoded METAR 2019/06/26 06:00 UTC NOAA

Galeao, Brazil (SBGL) 22-49S 043-15W 42M
Jun 26, 2019 - 02:00 AM EDT / 2019.06.26 0600 UTC
Wind: from the NE (050 degrees) at 3 MPH (3 KT):0
Visibility: greater than 7 mile(s):0
Temperature: 69 F (21 C)
Dew Point: 66 F (19 C)
Relative Humidity: 88%
Pressure (altimeter): 29.91 in. Hg (1013 hPa)
ob: SBGL 260600Z 05003KT CAVOK 21/19 Q1013
cycle: 6

Station Type Date Time Source
SBGL TAF 2019/06/26 06:33 UTC NOAA

TAF SBGL 260423Z 2606/2712 33005KT CAVOK TN20/2609Z TX32/2617Z
BECMG 2611/2613 03005KT
BECMG 2618/2620 13008KT
BECMG 2701/2703 26005KT SCT035
BECMG 2706/2708 35003KT
RMK PHQ

Example: see airport list